Time;durP1;ratioP1;P1;durP2;ratioP2;P2;SDS_P1;SDS_P2;PMS_P1;PMS_P2;Temp;Humidity;BMP_temperature;BMP_pressure;BME280_temperature;BME280_humidity;BME280_pressure;Samples;Min_cycle;Max_cycle;Signal;HPM_P1;HPM_P2
2022/09/10 00:00:58;;;;;;;7.25;2.85;;;;;;;13.34;100.00;100936.91;5092889;28;20028;-78
2022/09/10 00:03:24;;;;;;;10.40;3.05;;;;;;;13.32;100.00;100928.19;5093667;28;20043;-81
2022/09/10 00:05:50;;;;;;;8.52;2.70;;;;;;;13.28;100.00;100933.00;5075213;28;20024;-81
2022/09/10 00:08:17;;;;;;;10.27;2.60;;;;;;;13.27;100.00;100922.47;5093094;28;20357;-80
2022/09/10 00:10:48;;;;;;;9.98;2.80;;;;;;;13.26;100.00;100923.47;5075144;28;20032;-80
2022/09/10 00:13:17;;;;;;;9.18;2.97;;;;;;;13.23;100.00;100908.59;5093366;28;20093;-80
2022/09/10 00:15:49;;;;;;;10.93;2.95;;;;;;;13.18;100.00;100903.72;5093138;28;20082;-81
2022/09/10 00:18:19;;;;;;;7.88;2.95;;;;;;;13.17;100.00;100898.53;5093222;28;20066;-78
2022/09/10 00:20:53;;;;;;;7.57;3.08;;;;;;;13.15;100.00;100889.81;5093163;28;20035;-81
2022/09/10 00:23:22;;;;;;;9.70;3.35;;;;;;;13.15;100.00;100884.47;5074744;28;20175;-79
2022/09/10 00:25:48;;;;;;;12.70;3.53;;;;;;;13.15;100.00;100888.00;5093632;28;20040;-81
2022/09/10 00:28:15;;;;;;;8.45;3.53;;;;;;;13.15;100.00;100887.13;5075374;28;20043;-81
2022/09/10 00:30:42;;;;;;;7.55;3.28;;;;;;;13.14;100.00;100883.63;5093883;28;20040;-83
2022/09/10 00:33:08;;;;;;;6.30;3.50;;;;;;;13.15;100.00;100885.31;5092660;28;20077;-83
2022/09/10 00:35:35;;;;;;;12.27;3.60;;;;;;;13.14;100.00;100885.47;5092888;28;20085;-83
2022/09/10 00:38:01;;;;;;;9.95;3.88;;;;;;;13.14;100.00;100893.50;5093539;28;20043;-83
2022/09/10 00:40:27;;;;;;;9.50;3.55;;;;;;;13.15;100.00;100885.31;5092962;28;20032;-84
2022/09/10 00:42:54;;;;;;;10.32;3.53;;;;;;;13.13;100.00;100887.28;5092788;28;20069;-83
2022/09/10 00:45:21;;;;;;;8.55;3.45;;;;;;;13.16;100.00;100894.16;5093314;28;20059;-82
2022/09/10 00:47:50;;;;;;;10.30;3.45;;;;;;;13.17;100.00;100893.19;5074646;28;20054;-82
2022/09/10 00:50:26;;;;;;;10.48;3.50;;;;;;;13.19;100.00;100896.53;5075249;28;20086;-83
2022/09/10 00:52:55;;;;;;;9.52;3.80;;;;;;;13.22;100.00;100888.19;5074688;28;20024;-81
2022/09/10 00:55:22;;;;;;;12.10;4.00;;;;;;;13.25;100.00;100882.53;5074697;28;20361;-82
2022/09/10 00:57:51;;;;;;;11.68;5.13;;;;;;;13.28;100.00;100874.22;5092780;28;20036;-81
2022/09/10 01:00:16;;;;;;;16.55;5.45;;;;;;;13.30;100.00;100879.41;5092805;28;20047;-82
2022/09/10 01:02:43;;;;;;;14.98;6.65;;;;;;;13.32;100.00;100866.75;5093202;28;20032;-80
2022/09/10 01:05:10;;;;;;;15.15;6.72;;;;;;;13.33;100.00;100873.75;5092258;28;20036;-82
2022/09/10 01:07:36;;;;;;;20.67;6.90;;;;;;;13.35;100.00;100874.47;5092651;28;20032;-81
2022/09/10 01:10:07;;;;;;;19.52;7.85;;;;;;;13.36;100.00;100873.47;5095796;28;20102;-80
2022/09/10 01:13:06;;;;;;;13.25;6.97;;;;;;;13.36;100.00;100876.13;5079025;28;20063;-81
2022/09/10 01:15:32;;;;;;;21.90;7.57;;;;;;;13.38;100.00;100871.47;5095842;28;20060;-81
2022/09/10 01:18:20;;;;;;;17.27;6.82;;;;;;;13.40;100.00;100881.03;5095857;28;20380;-80
2022/09/10 01:21:07;;;;;;;20.90;8.10;;;;;;;13.41;100.00;100871.16;5054203;28;20075;-80
2022/09/10 01:23:54;;;;;;;17.55;6.85;;;;;;;13.44;100.00;100875.38;5096192;28;20044;-81
2022/09/10 01:26:41;;;;;;;20.33;7.10;;;;;;;13.45;100.00;100871.69;5078456;28;20087;-80
2022/09/10 01:29:23;;;;;;;21.50;7.53;;;;;;;13.47;100.00;100870.53;5095808;28;20035;-80
2022/09/10 01:32:05;;;;;;;18.27;7.25;;;;;;;13.47;100.00;100869.72;5095622;28;20036;-82
2022/09/10 01:34:34;;;;;;;21.90;6.88;;;;;;;13.49;100.00;100865.03;5096595;28;20028;-81
2022/09/10 01:37:09;;;;;;;17.08;5.88;;;;;;;13.49;100.00;100862.38;5095756;28;20067;-80
2022/09/10 01:39:36;;;;;;;22.38;6.30;;;;;;;13.48;100.00;100855.34;5095549;28;20032;-79
2022/09/10 01:42:02;;;;;;;15.52;6.20;;;;;;;13.48;100.00;100871.38;5095521;28;20345;-81
2022/09/10 01:44:41;;;;;;;22.95;5.85;;;;;;;13.48;100.00;100872.22;5095575;28;20081;-76
2022/09/10 01:47:16;;;;;;;18.52;5.57;;;;;;;13.48;100.00;100874.91;5078151;28;20032;-78
2022/09/10 01:50:31;;;;;;;23.23;6.25;;;;;;;13.48;100.00;100879.38;5095826;28;20035;-79
2022/09/10 01:53:27;;;;;;;23.70;5.85;;;;;;;13.49;100.00;100884.56;5085866;28;20131;-77
2022/09/10 01:56:04;;;;;;;50.88;6.53;;;;;;;13.50;100.00;100883.59;5095781;28;20031;-76
2022/09/10 01:58:41;;;;;;;26.10;5.60;;;;;;;13.53;100.00;100901.16;5095725;28;20182;-79
2022/09/10 02:01:28;;;;;;;38.58;4.88;;;;;;;13.54;100.00;100889.44;5095100;28;20036;-78
2022/09/10 02:04:00;;;;;;;144.18;7.53;;;;;;;13.56;100.00;100880.28;5095652;28;20134;-80
2022/09/10 02:06:28;;;;;;;53.80;4.95;;;;;;;13.57;100.00;100875.78;5095142;28;20027;-81
2022/09/10 02:08:57;;;;;;;18.25;4.43;;;;;;;13.60;100.00;100877.28;5095440;28;20031;-82
2022/09/10 02:11:22;;;;;;;12.48;4.18;;;;;;;13.60;100.00;100871.94;5094954;28;20506;-82
2022/09/10 02:13:48;;;;;;;9.98;3.42;;;;;;;13.62;100.00;100869.97;5095067;28;20040;-84
2022/09/10 02:16:20;;;;;;;15.05;4.45;;;;;;;13.63;100.00;100871.63;5095009;28;20467;-78
2022/09/10 02:18:46;;;;;;;16.63;4.32;;;;;;;13.62;100.00;100862.78;5095231;28;20051;-79
2022/09/10 02:21:11;;;;;;;15.98;4.28;;;;;;;13.64;100.00;100855.41;5093753;28;20044;-79
2022/09/10 02:23:47;;;;;;;22.55;5.78;;;;;;;13.68;100.00;100859.47;5077453;28;20032;-78
2022/09/10 02:26:13;;;;;;;13.60;4.07;;;;;;;13.70;100.00;100852.13;5094925;28;20067;-80
2022/09/10 02:28:42;;;;;;;15.55;4.40;;;;;;;13.70;100.00;100851.28;5076312;28;20040;-81
2022/09/10 02:31:08;;;;;;;16.83;4.88;;;;;;;13.65;100.00;100854.44;5094876;28;20036;-82
2022/09/10 02:33:34;;;;;;;8.88;4.22;;;;;;;13.63;100.00;100861.78;5095086;28;20445;-82
2022/09/10 02:36:00;;;;;;;15.65;4.97;;;;;;;13.60;100.00;100859.44;5094658;28;20059;-83
2022/09/10 02:38:28;;;;;;;11.68;4.22;;;;;;;13.57;100.00;100852.56;5094511;28;20437;-81
2022/09/10 02:40:54;;;;;;;14.23;4.40;;;;;;;13.57;100.00;100852.56;5094461;28;20040;-81
2022/09/10 02:43:20;;;;;;;12.50;4.72;;;;;;;13.60;100.00;100855.91;5094190;28;20105;-81
2022/09/10 02:45:45;;;;;;;13.00;5.03;;;;;;;13.61;100.00;100858.41;5076541;28;20032;-81
2022/09/10 02:48:11;;;;;;;11.77;4.47;;;;;;;13.60;100.00;100856.75;5076954;28;20074;-82
2022/09/10 02:50:36;;;;;;;16.70;4.38;;;;;;;13.55;100.00;100859.06;5076679;28;20036;-82
2022/09/10 02:53:01;;;;;;;13.43;4.90;;;;;;;13.46;100.00;100862.69;5076567;28;20036;-81
2022/09/10 02:55:27;;;;;;;14.45;5.47;;;;;;;13.39;100.00;100855.28;5094294;28;20040;-82
2022/09/10 02:57:53;;;;;;;12.82;5.70;;;;;;;13.37;100.00;100851.91;5094664;28;20032;-82
2022/09/10 03:00:19;;;;;;;18.15;6.82;;;;;;;13.38;100.00;100850.09;5094336;28;20417;-82
2022/09/10 03:02:46;;;;;;;22.67;8.40;;;;;;;13.42;100.00;100851.47;5094433;28;20039;-81
2022/09/10 03:05:13;;;;;;;20.25;7.22;;;;;;;13.44;100.00;100846.81;5094701;28;20117;-81
2022/09/10 03:07:38;;;;;;;26.80;7.93;;;;;;;13.42;100.00;100851.47;5093771;28;20123;-81
2022/09/10 03:10:04;;;;;;;13.73;6.25;;;;;;;13.39;100.00;100849.09;5094121;28;20115;-81
2022/09/10 03:12:29;;;;;;;22.48;6.93;;;;;;;13.32;100.00;100840.84;5093832;28;20103;-82
2022/09/10 03:14:56;;;;;;;17.67;6.88;;;;;;;13.27;100.00;100844.97;5093574;28;20058;-82
2022/09/10 03:17:22;;;;;;;22.70;6.85;;;;;;;13.26;100.00;100846.81;5093758;28;20028;-81
2022/09/10 03:19:47;;;;;;;16.42;6.50;;;;;;;13.24;100.00;100851.47;5094215;28;20441;-81
2022/09/10 03:22:12;;;;;;;25.27;7.25;;;;;;;13.26;100.00;100846.00;5075900;28;20052;-81
2022/09/10 03:24:37;;;;;;;23.05;7.15;;;;;;;13.31;100.00;100841.00;5093734;28;20044;-81
2022/09/10 03:27:03;;;;;;;20.33;7.30;;;;;;;13.34;100.00;100838.03;5075622;28;20032;-81
2022/09/10 03:29:29;;;;;;;23.55;7.50;;;;;;;13.33;100.00;100839.88;5093518;28;20418;-81
2022/09/10 03:31:54;;;;;;;14.50;7.88;;;;;;;13.32;100.00;100840.84;5093476;28;20099;-81
2022/09/10 03:34:20;;;;;;;23.20;7.43;;;;;;;13.32;100.00;100840.84;5093868;28;20024;-81
2022/09/10 03:36:46;;;;;;;21.48;7.43;;;;;;;13.34;100.00;100841.53;5093619;28;20032;-81
2022/09/10 03:39:13;;;;;;;20.10;7.38;;;;;;;13.35;100.00;100845.06;5093056;28;20038;-81
2022/09/10 03:41:38;;;;;;;22.15;8.07;;;;;;;13.39;100.00;100846.41;5093833;28;20099;-81
2022/09/10 03:44:04;;;;;;;18.20;7.53;;;;;;;13.45;100.00;100850.31;5075911;28;20143;-81
2022/09/10 03:46:30;;;;;;;20.40;7.93;;;;;;;13.51;100.00;100847.00;5093488;28;20060;-81
2022/09/10 03:48:55;;;;;;;22.55;8.85;;;;;;;13.56;100.00;100848.19;5093271;28;20043;-81
2022/09/10 03:51:22;;;;;;;19.77;8.35;;;;;;;13.60;100.00;100845.22;5093217;28;20075;-81
2022/09/10 03:53:47;;;;;;;33.00;12.82;;;;;;;13.62;100.00;100849.41;5092933;28;20479;-81
2022/09/10 03:56:14;;;;;;;32.33;14.80;;;;;;;13.64;100.00;100843.91;5093409;28;20036;-82
2022/09/10 03:58:39;;;;;;;39.97;13.82;;;;;;;13.67;100.00;100851.59;5093579;28;20376;-81
2022/09/10 04:01:05;;;;;;;37.53;15.43;;;;;;;13.67;100.00;100846.25;5093500;28;20032;-81
2022/09/10 04:03:31;;;;;;;32.08;14.13;;;;;;;13.62;100.00;100854.75;5093561;28;20059;-82
2022/09/10 04:05:57;;;;;;;28.42;12.38;;;;;;;13.54;100.00;100850.22;5093183;28;20047;-81
2022/09/10 04:08:23;;;;;;;31.35;12.30;;;;;;;13.51;100.00;100855.00;5093496;28;20040;-81
2022/09/10 04:10:48;;;;;;;28.83;11.50;;;;;;;13.44;100.00;100852.16;5092800;28;20476;-81
2022/09/10 04:13:13;;;;;;;31.58;11.43;;;;;;;13.36;100.00;100854.75;5093151;28;20028;-82
2022/09/10 04:15:39;;;;;;;24.70;12.32;;;;;;;13.28;100.00;100860.03;5074841;28;20475;-82
2022/09/10 04:18:06;;;;;;;28.60;11.65;;;;;;;13.21;100.00;100857.13;5093288;28;20032;-82
2022/09/10 04:20:32;;;;;;;29.05;11.88;;;;;;;13.18;100.00;100866.31;5074930;28;20037;-82
2022/09/10 04:22:57;;;;;;;27.08;11.50;;;;;;;13.15;100.00;100868.44;5092567;28;20147;-82
2022/09/10 04:25:23;;;;;;;29.35;12.48;;;;;;;13.11;100.00;100869.75;5093453;28;20137;-81
2022/09/10 04:27:48;;;;;;;26.80;12.75;;;;;;;13.09;100.00;100871.72;5092984;28;20089;-82
2022/09/10 04:30:14;;;;;;;26.92;12.18;;;;;;;13.06;100.00;100875.53;5074855;28;20054;-82
2022/09/10 04:32:40;;;;;;;31.35;12.50;;;;;;;13.03;100.00;100874.03;5093004;28;20067;-82
2022/09/10 04:35:06;;;;;;;29.80;12.90;;;;;;;12.98;100.00;100870.97;5094819;28;20115;-81
2022/09/10 04:37:32;;;;;;;33.00;13.93;;;;;;;12.94;100.00;100872.25;5096267;28;20529;-82
2022/09/10 04:39:57;;;;;;;21.98;10.10;;;;;;;12.89;100.00;100866.56;5094558;28;20070;-81
2022/09/10 04:42:23;;;;;;;28.92;12.95;;;;;;;12.84;100.00;100869.69;5076773;28;20040;-82
2022/09/10 04:44:49;;;;;;;28.35;12.75;;;;;;;12.81;100.00;100879.84;5096619;28;20028;-81
2022/09/10 04:47:15;;;;;;;23.00;11.57;;;;;;;12.74;100.00;100882.28;5097128;28;20110;-82
2022/09/10 04:49:41;;;;;;;27.40;13.70;;;;;;;12.72;100.00;100886.09;5096313;28;20525;-82
2022/09/10 04:52:06;;;;;;;26.48;12.50;;;;;;;12.66;100.00;100883.03;5096571;28;20066;-82
2022/09/10 04:54:32;;;;;;;27.42;13.02;;;;;;;12.63;100.00;100879.81;5096269;28;20040;-81
2022/09/10 04:56:59;;;;;;;33.67;14.00;;;;;;;12.63;100.00;100888.69;5096889;28;20064;-82
2022/09/10 04:59:25;;;;;;;24.25;11.43;;;;;;;12.65;100.00;100892.03;5096314;28;20035;-82
2022/09/10 05:01:51;;;;;;;31.90;14.60;;;;;;;12.67;100.00;100887.41;5097089;28;20123;-82
2022/09/10 05:04:16;;;;;;;30.90;14.40;;;;;;;12.67;100.00;100891.88;5096319;28;20110;-82
2022/09/10 05:06:41;;;;;;;36.05;14.75;;;;;;;12.65;100.00;100894.69;5096146;28;20491;-82
2022/09/10 05:09:08;;;;;;;28.73;14.02;;;;;;;12.61;100.00;100892.50;5095870;28;20040;-82
2022/09/10 05:11:33;;;;;;;27.42;12.98;;;;;;;12.55;100.00;100893.94;5096020;28;20028;-82
2022/09/10 05:13:59;;;;;;;31.30;14.13;;;;;;;12.56;100.00;100902.78;5096302;28;20035;-83
2022/09/10 05:16:24;;;;;;;29.20;13.77;;;;;;;12.56;100.00;100897.44;5096379;28;20107;-82
2022/09/10 05:18:49;;;;;;;33.38;14.15;;;;;;;12.54;100.00;100897.59;5096152;28;20036;-82
2022/09/10 05:21:17;;;;;;;34.35;14.77;;;;;;;12.53;100.00;100904.75;5095577;28;20052;-82
2022/09/10 05:23:42;;;;;;;43.55;16.55;;;;;;;12.56;100.00;100905.47;5095887;28;20028;-82
2022/09/10 05:26:08;;;;;;;35.33;15.43;;;;;;;12.63;100.00;100907.38;5095980;28;20028;-82
2022/09/10 05:28:34;;;;;;;39.03;16.10;;;;;;;12.66;100.00;100904.41;5095823;28;20032;-83
2022/09/10 05:30:59;;;;;;;43.15;16.88;;;;;;;12.68;100.00;100906.91;5096746;28;20035;-82
2022/09/10 05:33:25;;;;;;;35.47;15.05;;;;;;;12.69;100.00;100920.09;5095721;28;20028;-82
2022/09/10 05:35:50;;;;;;;37.53;15.30;;;;;;;12.74;100.00;100910.81;5060975;28;20353;-83
2022/09/10 05:38:16;;;;;;;43.55;16.38;;;;;;;12.77;100.00;100915.84;5095484;28;20036;-83
2022/09/10 05:40:42;;;;;;;37.30;15.85;;;;;;;12.85;100.00;100918.59;5095817;28;20035;-83
2022/09/10 05:43:07;;;;;;;35.25;14.73;;;;;;;12.95;100.00;100915.84;5095574;28;20024;-83
2022/09/10 05:45:33;;;;;;;32.97;14.23;;;;;;;13.08;100.00;100915.44;5095529;28;20039;-83
2022/09/10 05:47:58;;;;;;;36.63;14.60;;;;;;;13.15;100.00;100921.88;5077431;28;20132;-83
2022/09/10 05:50:24;;;;;;;31.00;13.82;;;;;;;13.20;100.00;100920.41;5095353;28;20028;-83
2022/09/10 05:52:49;;;;;;;32.78;14.35;;;;;;;13.27;100.00;100925.13;5095731;28;20484;-82
2022/09/10 05:55:15;;;;;;;29.05;12.98;;;;;;;13.36;100.00;100932.25;5094207;28;20051;-83
2022/09/10 05:57:40;;;;;;;29.40;12.95;;;;;;;13.47;100.00;100936.53;5095231;28;20435;-83
2022/09/10 06:00:08;;;;;;;33.58;11.95;;;;;;;13.58;100.00;100937.13;5095210;28;20395;-83
2022/09/10 06:02:33;;;;;;;17.80;7.63;;;;;;;13.67;100.00;100940.66;5095199;28;20039;-81
2022/09/10 06:04:59;;;;;;;19.73;7.10;;;;;;;13.74;100.00;100944.38;5095172;28;20040;-83
2022/09/10 06:07:28;;;;;;;15.07;7.43;;;;;;;13.85;100.00;100935.28;5095129;28;20028;-83
2022/09/10 06:09:53;;;;;;;25.67;8.60;;;;;;;13.99;100.00;100939.19;5094937;28;20073;-83
2022/09/10 06:12:19;;;;;;;19.33;8.40;;;;;;;14.15;100.00;100941.09;5095012;28;20028;-83
2022/09/10 06:14:44;;;;;;;15.95;7.50;;;;;;;14.29;100.00;100931.66;5095012;28;20482;-83
2022/09/10 06:17:11;;;;;;;20.52;7.75;;;;;;;14.39;100.00;100940.38;5095322;28;20131;-83
2022/09/10 06:19:36;;;;;;;20.00;7.85;;;;;;;14.49;100.00;100934.06;5095429;28;20060;-82
2022/09/10 06:22:02;;;;;;;16.25;6.80;;;;;;;14.58;100.00;100933.06;5095001;28;20079;-82
2022/09/10 06:24:27;;;;;;;14.13;5.93;;;;;;;14.68;100.00;100946.38;5095406;28;20440;-82
2022/09/10 06:26:52;;;;;;;12.68;4.93;;;;;;;14.76;100.00;100944.56;5094379;28;20036;-84
2022/09/10 06:29:18;;;;;;;8.45;3.90;;;;;;;14.80;100.00;100953.09;5094358;28;20472;-84
2022/09/10 06:31:45;;;;;;;11.88;4.35;;;;;;;14.78;100.00;100949.75;5095029;28;20086;-84
2022/09/10 06:34:11;;;;;;;6.95;2.78;;;;;;;14.79;100.00;100954.06;5094648;28;20032;-84
2022/09/10 06:36:36;;;;;;;9.48;2.80;;;;;;;14.76;100.00;100959.75;5094763;28;20028;-84
2022/09/10 06:39:02;;;;;;;7.45;3.08;;;;;;;14.77;100.00;100961.44;5094773;28;20429;-83
2022/09/10 06:41:29;;;;;;;7.72;2.70;;;;;;;14.79;100.00;100962.97;5094423;28;20024;-83
2022/09/10 06:43:55;;;;;;;10.30;2.63;;;;;;;14.84;100.00;100975.00;5094454;28;20035;-84
2022/09/10 06:46:21;;;;;;;4.88;2.88;;;;;;;14.87;100.00;100975.53;5094323;28;20039;-83
2022/09/10 06:48:47;;;;;;;7.60;2.45;;;;;;;14.94;100.00;100981.94;5094755;28;20059;-84
2022/09/10 06:51:13;;;;;;;12.95;3.03;;;;;;;15.00;100.00;100988.44;5094383;28;20040;-84
2022/09/10 06:53:40;;;;;;;8.07;2.22;;;;;;;14.99;100.00;100987.63;5095233;28;20063;-84
2022/09/10 06:56:08;;;;;;;5.97;2.20;;;;;;;14.97;100.00;100983.41;5094336;28;20488;-84
2022/09/10 06:58:37;;;;;;;12.45;2.10;;;;;;;14.91;100.00;100992.13;5094678;28;20028;-84
2022/09/10 07:01:29;;;;;;;12.23;1.95;;;;;;;14.81;100.00;100995.78;5094022;28;20396;-84
2022/09/10 07:03:56;;;;;;;9.30;1.77;;;;;;;14.76;100.00;101000.78;5071534;28;20437;-84
2022/09/10 07:06:22;;;;;;;3.70;1.80;;;;;;;14.76;100.00;101002.63;5093790;28;20032;-84
2022/09/10 07:08:52;;;;;;;8.25;1.80;;;;;;;14.79;100.00;101007.66;5094054;28;20499;-84
2022/09/10 07:11:17;;;;;;;3.95;1.50;;;;;;;14.81;100.00;101005.66;5093887;28;20066;-84
2022/09/10 07:13:42;;;;;;;5.75;1.63;;;;;;;14.81;100.00;101005.66;5075702;28;20117;-83
2022/09/10 07:16:08;;;;;;;6.13;1.80;;;;;;;14.80;100.00;101012.84;5093687;28;20059;-84
2022/09/10 07:18:34;;;;;;;5.80;1.90;;;;;;;14.84;100.00;101016.06;5093723;28;20028;-84
2022/09/10 07:21:08;;;;;;;5.28;1.85;;;;;;;14.89;100.00;101015.56;5093501;28;20415;-84
2022/09/10 07:23:34;;;;;;;10.45;2.10;;;;;;;15.00;100.00;101025.94;5094653;28;20032;-84
2022/09/10 07:26:04;;;;;;;11.90;3.50;;;;;;;15.11;100.00;101030.19;5093633;28;20126;-89
2022/09/10 07:28:30;;;;;;;22.85;5.85;;;;;;;15.29;100.00;101035.41;5093708;28;20043;-85
2022/09/10 07:30:56;;;;;;;31.10;10.77;;;;;;;15.60;100.00;101045.47;5093312;28;20035;-86
2022/09/10 07:33:22;;;;;;;31.13;10.70;;;;;;;15.54;100.00;101057.72;5059357;28;20025;-86
2022/09/10 07:35:47;;;;;;;31.58;13.40;;;;;;;15.48;100.00;101059.22;5093486;28;20107;-84
2022/09/10 07:38:13;;;;;;;40.50;15.30;;;;;;;15.56;100.00;101061.06;5093785;28;20367;-84
2022/09/10 07:40:39;;;;;;;44.40;16.58;;;;;;;15.69;100.00;101063.28;5093387;28;20040;-84
2022/09/10 07:43:05;;;;;;;43.95;17.60;;;;;;;15.76;100.00;101066.94;5093263;28;20081;-84
2022/09/10 07:45:31;;;;;;;45.63;17.48;;;;;;;15.78;100.00;101072.16;5093518;28;20024;-82
2022/09/10 07:47:57;;;;;;;40.75;18.20;;;;;;;15.85;100.00;101074.03;5093279;28;20361;-83
2022/09/10 07:50:22;;;;;;;31.70;15.13;;;;;;;15.86;100.00;101073.00;5093311;28;20089;-84
2022/09/10 07:52:48;;;;;;;36.35;16.10;;;;;;;15.81;100.00;101074.53;5093291;28;20111;-82
2022/09/10 07:55:13;;;;;;;33.90;16.05;;;;;;;15.83;100.00;101069.84;5093992;28;20352;-88
2022/09/10 07:57:39;;;;;;;43.72;17.73;;;;;;;15.88;100.00;101077.38;5075689;28;20111;-85
2022/09/10 08:00:15;;;;;;;38.08;17.45;;;;;;;15.97;100.00;101076.34;5092895;28;20032;-88
2022/09/10 08:02:41;;;;;;;39.35;18.17;;;;;;;16.09;100.00;101080.38;5093385;28;20475;-85
2022/09/10 08:05:09;;;;;;;32.80;17.33;;;;;;;16.18;100.00;101078.50;5093155;28;20028;-85
2022/09/10 08:07:35;;;;;;;37.28;16.95;;;;;;;16.28;100.00;101083.72;5092868;28;20028;-87
2022/09/10 08:10:00;;;;;;;32.95;16.60;;;;;;;16.65;100.00;101087.66;5093381;28;20073;-84
2022/09/10 08:12:25;;;;;;;31.20;15.30;;;;;;;17.24;100.00;101095.28;5092890;28;20436;-83
2022/09/10 08:14:51;;;;;;;30.48;13.90;;;;;;;17.45;100.00;101097.34;5093033;28;20028;-86
2022/09/10 08:17:17;;;;;;;15.98;10.38;;;;;;;17.65;100.00;101105.81;5074900;28;20384;-83
2022/09/10 08:19:43;;;;;;;16.95;10.45;;;;;;;17.83;100.00;101104.69;5095899;28;20024;-84
2022/09/10 08:22:09;;;;;;;17.05;10.38;;;;;;;17.89;100.00;101109.34;5097486;28;20305;-85
2022/09/10 08:24:34;;;;;;;19.02;10.45;;;;;;;17.77;100.00;101111.59;5097832;28;20028;-84
2022/09/10 08:26:59;;;;;;;15.77;9.57;;;;;;;17.85;100.00;101113.41;5062049;28;20024;-84
2022/09/10 08:29:25;;;;;;;18.50;7.93;;;;;;;18.12;100.00;101120.09;5097138;28;20067;-87
2022/09/10 08:31:50;;;;;;;11.63;6.50;;;;;;;18.33;100.00;101122.94;5078817;28;20020;-82
2022/09/10 08:34:15;;;;;;;10.57;6.40;;;;;;;18.68;100.00;101134.00;5078811;28;20448;-82
2022/09/10 08:36:44;;;;;;;8.80;5.90;;;;;;;19.01;100.00;101128.25;5096966;28;20032;-83
2022/09/10 08:39:12;;;;;;;15.18;5.38;;;;;;;19.14;100.00;101137.56;5062209;28;20055;-80
2022/09/10 08:41:38;;;;;;;9.02;4.80;;;;;;;18.82;100.00;101142.28;5079032;28;20036;-85
2022/09/10 08:44:12;;;;;;;8.60;5.20;;;;;;;18.45;100.00;101146.72;5097501;28;20444;-78
2022/09/10 08:46:49;;;;;;;9.20;5.50;;;;;;;18.22;100.00;101155.69;5096867;28;20032;-80
2022/09/10 08:49:29;;;;;;;11.05;5.55;;;;;;;17.95;100.00;101151.69;5096753;28;20446;-81
2022/09/10 08:52:13;;;;;;;11.00;5.95;;;;;;;17.83;100.00;101164.72;5096396;28;20464;-79
2022/09/10 08:55:07;;;;;;;10.65;6.28;;;;;;;17.90;100.00;101159.47;5096929;28;20046;-81
2022/09/10 08:57:40;;;;;;;9.82;7.05;;;;;;;17.95;100.00;101163.28;5096510;28;20484;-81
2022/09/10 09:00:10;;;;;;;8.77;5.85;;;;;;;17.99;100.00;101163.78;5096831;28;20035;-81
2022/09/10 09:03:11;;;;;;;7.43;4.40;;;;;;;18.32;100.00;101175.13;5097099;28;20038;-81
2022/09/10 09:05:50;;;;;;;5.20;3.50;;;;;;;20.14;100.00;101179.13;5097077;28;20016;-86
2022/09/10 09:08:19;;;;;;;4.43;3.10;;;;;;;21.42;96.11;101180.78;5078935;28;20032;-81
2022/09/10 09:10:48;;;;;;;5.40;2.67;;;;;;;21.05;94.26;101172.09;5096894;28;20464;-82
2022/09/10 09:13:32;;;;;;;4.93;2.53;;;;;;;20.44;100.00;101176.28;5096160;28;20039;-83
2022/09/10 09:16:00;;;;;;;3.80;2.45;;;;;;;19.73;100.00;101180.59;5096429;28;20047;-82
2022/09/10 09:18:50;;;;;;;4.50;2.45;;;;;;;19.44;100.00;101183.38;5096267;28;20111;-84
2022/09/10 09:21:23;;;;;;;4.75;2.20;;;;;;;19.62;100.00;101194.56;5077995;28;20051;-84
2022/09/10 09:23:50;;;;;;;3.92;2.05;;;;;;;19.43;100.00;101193.31;5078764;28;20024;-83
2022/09/10 09:26:18;;;;;;;3.13;2.10;;;;;;;19.27;100.00;101199.78;5096242;28;20050;-80
2022/09/10 09:29:01;;;;;;;4.65;2.33;;;;;;;19.51;100.00;101201.31;5078531;28;20359;-80
2022/09/10 09:31:31;;;;;;;4.03;2.55;;;;;;;20.06;100.00;101207.13;5096040;28;20024;-80
2022/09/10 09:34:15;;;;;;;3.78;2.60;;;;;;;20.28;99.48;101211.69;5077628;28;20534;-83
2022/09/10 09:36:47;;;;;;;4.93;2.67;;;;;;;19.84;100.00;101206.28;5096425;28;20028;-81
2022/09/10 09:39:36;;;;;;;4.20;2.60;;;;;;;20.06;100.00;101206.25;5077830;28;20345;-83
2022/09/10 09:42:18;;;;;;;3.60;2.22;;;;;;;21.60;90.96;101210.88;5095689;28;20371;-79
2022/09/10 09:44:56;;;;;;;7.60;2.63;;;;;;;23.22;86.29;101210.72;5095809;28;20381;-81
2022/09/10 09:47:22;;;;;;;4.10;2.33;;;;;;;24.51;80.82;101211.63;5095604;28;20028;-84
2022/09/10 09:49:48;;;;;;;5.80;2.70;;;;;;;25.14;68.17;101211.44;5095287;28;20043;-80
2022/09/10 09:52:21;;;;;;;5.53;2.80;;;;;;;23.79;71.71;101212.75;5077480;28;20551;-81
2022/09/10 09:54:54;;;;;;;6.18;3.10;;;;;;;22.00;84.51;101221.81;5095863;28;20032;-80
2022/09/10 09:57:22;;;;;;;4.13;2.75;;;;;;;21.89;89.97;101227.81;5095576;28;20039;-82
2022/09/10 09:59:49;;;;;;;9.32;3.92;;;;;;;23.00;83.40;101231.00;5095439;28;20043;-80
2022/09/10 10:02:21;;;;;;;4.78;3.42;;;;;;;24.16;74.59;101237.41;5095326;28;20510;-79
2022/09/10 10:05:02;;;;;;;4.32;3.08;;;;;;;24.52;69.89;101235.06;5094907;28;20134;-82
2022/09/10 10:07:31;;;;;;;8.57;4.38;;;;;;;22.80;71.94;101233.75;5095415;28;20027;-80
2022/09/10 10:09:59;;;;;;;6.30;3.53;;;;;;;21.89;80.17;101237.84;5095101;28;20028;-85
2022/09/10 10:12:30;;;;;;;4.97;3.33;;;;;;;22.94;77.85;101242.69;5076603;28;20031;-88
2022/09/10 10:14:56;;;;;;;8.70;3.30;;;;;;;24.43;71.46;101229.06;5077829;28;20031;-88
2022/09/10 10:17:34;;;;;;;3.38;3.05;;;;;;;24.68;66.75;101229.09;5095065;28;20103;-86
2022/09/10 10:20:06;;;;;;;4.05;2.80;;;;;;;23.55;68.77;101231.47;5095323;28;20464;-84
2022/09/10 10:22:31;;;;;;;8.70;3.28;;;;;;;21.97;79.17;101240.34;5094435;28;20044;-85
2022/09/10 10:24:59;;;;;;;5.18;2.80;;;;;;;22.05;81.33;101245.59;5094998;28;20055;-85
2022/09/10 10:27:34;;;;;;;4.63;2.60;;;;;;;23.32;74.23;101241.97;5095193;28;20032;-85
2022/09/10 10:30:11;;;;;;;4.18;2.40;;;;;;;24.83;64.66;101242.34;5095453;28;20085;-84
2022/09/10 10:32:45;;;;;;;4.70;2.20;;;;;;;25.44;63.87;101251.53;5094668;28;20024;-82
2022/09/10 10:35:31;;;;;;;4.07;2.13;;;;;;;25.13;62.94;101247.06;5094431;28;20464;-81
2022/09/10 10:38:29;;;;;;;5.43;2.10;;;;;;;24.51;65.85;101253.25;5095232;28;20341;-83
2022/09/10 10:41:19;;;;;;;2.72;1.77;;;;;;;25.33;61.87;101255.88;5076452;28;20364;-84
2022/09/10 10:43:51;;;;;;;3.58;2.20;;;;;;;25.82;62.10;101258.56;5094723;28;20094;-83
2022/09/10 10:46:20;;;;;;;5.53;1.80;;;;;;;25.21;62.35;101260.34;5094964;28;20073;-82
2022/09/10 10:48:57;;;;;;;5.72;2.00;;;;;;;23.74;65.89;101266.91;5094338;28;20035;-83
2022/09/10 10:51:35;;;;;;;6.68;2.30;;;;;;;22.96;72.71;101279.44;5094157;28;20077;-81
2022/09/10 10:54:03;;;;;;;4.72;2.00;;;;;;;22.81;73.42;101279.66;5076091;28;20099;-80
2022/09/10 10:56:46;;;;;;;4.20;2.00;;;;;;;22.82;72.29;101281.31;5094439;28;20063;-81
2022/09/10 10:59:22;;;;;;;6.43;2.17;;;;;;;22.93;73.60;101289.84;5094105;28;20028;-81
2022/09/10 11:01:55;;;;;;;5.70;2.13;;;;;;;23.10;74.58;101291.13;5075979;28;20502;-81
2022/09/10 11:04:49;;;;;;;6.32;2.28;;;;;;;22.63;73.91;101296.56;5094005;28;20490;-80
2022/09/10 11:07:29;;;;;;;6.35;2.30;;;;;;;21.97;79.44;101295.34;5093909;28;20032;-82
2022/09/10 11:10:21;;;;;;;8.93;2.45;;;;;;;22.29;78.88;101303.78;5094077;28;20051;-80
2022/09/10 11:13:08;;;;;;;5.28;2.22;;;;;;;22.60;72.04;101294.25;5093951;28;20046;-82
2022/09/10 11:15:54;;;;;;;4.28;1.98;;;;;;;23.29;71.66;101292.13;5094913;28;20031;-83
2022/09/10 11:18:41;;;;;;;5.85;2.33;;;;;;;24.02;70.22;101282.88;5094207;28;20423;-81
2022/09/10 11:21:29;;;;;;;6.63;1.92;;;;;;;24.35;65.98;101291.84;5093568;28;20099;-80
2022/09/10 11:24:10;;;;;;;3.33;1.65;;;;;;;23.85;66.74;101296.13;5075655;28;20122;-80